Time;durP1;ratioP1;P1;durP2;ratioP2;P2;SDS_P1;SDS_P2;PMS_P1;PMS_P2;Temp;Humidity;BMP_temperature;BMP_pressure;BME280_temperature;BME280_humidity;BME280_pressure;Samples;Min_cycle;Max_cycle;Signal;HPM_P1;HPM_P2
2022/10/06 00:01:38;;;;;;;;;;;11.50;99.90;;;;;;5079904;28;20394;-75
2022/10/06 00:04:03;;;;;;;;;;;11.40;99.90;;;;;;5079756;28;20003;-73
2022/10/06 00:06:29;;;;;;;;;;;11.40;99.90;;;;;;5077258;28;19908;-74
2022/10/06 00:08:54;;;;;;;;;;;11.40;99.90;;;;;;5076385;28;19913;-73
2022/10/06 00:11:21;;;;;;;;;;;11.40;99.90;;;;;;5076304;28;20020;-74
2022/10/06 00:13:46;;;;;;;;;;;11.40;99.90;;;;;;5076153;28;20016;-73
2022/10/06 00:16:17;;;;;;;;;;;11.40;99.90;;;;;;5074949;28;19940;-73
2022/10/06 00:18:43;;;;;;;;;;;11.40;99.90;;;;;;5076272;28;19958;-74
2022/10/06 00:21:08;;;;;;;;;;;11.30;99.90;;;;;;5076202;28;19909;-74
2022/10/06 00:23:37;;;;;;;;;;;11.30;99.90;;;;;;5076130;28;19981;-73
2022/10/06 00:26:02;;;;;;;;;;;11.30;99.90;;;;;;5076106;28;19958;-75
2022/10/06 00:28:28;;;;;;;;;;;11.30;99.90;;;;;;5076195;28;19908;-75
2022/10/06 00:30:55;;;;;;;;;;;11.20;99.90;;;;;;5076469;28;19908;-74
2022/10/06 00:33:21;;;;;;;;;;;11.10;99.90;;;;;;5075799;28;19913;-76
2022/10/06 00:35:46;;;;;;;;;;;11.20;99.90;;;;;;5075852;28;19908;-74
2022/10/06 00:38:13;;;;;;;;;;;11.10;99.90;;;;;;5075912;28;19961;-76
2022/10/06 00:40:46;;;;;;;;;;;11.10;99.90;;;;;;5075894;28;19909;-75
2022/10/06 00:43:30;;;;;;;;;;;11.10;99.90;;;;;;5074797;28;20276;-74
2022/10/06 00:45:56;;;;;;;;;;;11.10;99.90;;;;;;5075572;28;20382;-75
2022/10/06 00:48:23;;;;;;;;;;;11.20;99.90;;;;;;5075712;28;19955;-74
2022/10/06 00:50:50;;;;;;;;;;;11.30;99.90;;;;;;5075639;28;19909;-75
2022/10/06 00:53:15;;;;;;;;;;;11.30;99.90;;;;;;5075492;28;19920;-76
2022/10/06 00:55:41;;;;;;;;;;;11.30;99.90;;;;;;5074181;28;20273;-75
2022/10/06 00:58:08;;;;;;;;;;;11.30;99.90;;;;;;5075555;28;19908;-75
2022/10/06 01:00:34;;;;;;;;;;;11.30;99.90;;;;;;5075407;28;19913;-74
2022/10/06 01:03:04;;;;;;;;;;;11.30;99.90;;;;;;5075362;28;20418;-74
2022/10/06 01:05:33;;;;;;;;;;;11.10;99.90;;;;;;5075376;28;19999;-73
2022/10/06 01:07:58;;;;;;;;;;;11.00;99.90;;;;;;5075258;28;19958;-75
2022/10/06 01:10:24;;;;;;;;;;;10.90;99.90;;;;;;5075234;28;19917;-73
2022/10/06 01:12:50;;;;;;;;;;;10.80;99.90;;;;;;5075257;28;19912;-77
2022/10/06 01:15:17;;;;;;;;;;;10.80;99.90;;;;;;5075149;28;20000;-75
2022/10/06 01:17:45;;;;;;;;;;;10.80;99.90;;;;;;5074017;28;20003;-72
2022/10/06 01:20:12;;;;;;;;;;;10.80;99.90;;;;;;5074973;28;20395;-73
2022/10/06 01:22:43;;;;;;;;;;;10.90;99.90;;;;;;5075153;28;19908;-73
2022/10/06 01:25:10;;;;;;;;;;;10.70;99.90;;;;;;5075023;28;19909;-77
2022/10/06 01:27:38;;;;;;;;;;;10.70;99.90;;;;;;5074942;28;20344;-76
2022/10/06 01:30:05;;;;;;;;;;;10.90;99.90;;;;;;5074994;28;19916;-75
2022/10/06 01:32:31;;;;;;;;;;;10.90;99.90;;;;;;5075220;28;19912;-77
2022/10/06 01:34:57;;;;;;;;;;;10.70;99.90;;;;;;5074816;28;20011;-74
2022/10/06 01:37:23;;;;;;;;;;;10.70;99.90;;;;;;5074656;28;19979;-77
2022/10/06 01:39:48;;;;;;;;;;;10.60;99.90;;;;;;5074676;28;19909;-77
2022/10/06 01:42:14;;;;;;;;;;;10.50;99.90;;;;;;5074952;28;20320;-77
2022/10/06 01:44:40;;;;;;;;;;;10.50;99.90;;;;;;5074508;28;19918;-77
2022/10/06 01:47:06;;;;;;;;;;;10.50;99.90;;;;;;5074564;28;19909;-75
2022/10/06 01:49:31;;;;;;;;;;;10.50;99.90;;;;;;5072779;28;19920;-75
2022/10/06 01:51:57;;;;;;;;;;;10.60;99.90;;;;;;5074731;28;19908;-76
2022/10/06 01:54:22;;;;;;;;;;;10.60;99.90;;;;;;5074414;28;20440;-76
2022/10/06 01:56:48;;;;;;;;;;;10.80;99.90;;;;;;5074625;28;19916;-76
2022/10/06 01:59:14;;;;;;;;;;;10.70;99.90;;;;;;5074426;28;20369;-77
2022/10/06 02:01:40;;;;;;;;;;;10.60;99.90;;;;;;5074298;28;19908;-76
2022/10/06 02:04:05;;;;;;;;;;;10.60;99.90;;;;;;5074258;28;19909;-76
2022/10/06 02:06:31;;;;;;;;;;;10.50;99.90;;;;;;5074347;28;20364;-77
2022/10/06 02:08:56;;;;;;;;;;;10.50;99.90;;;;;;5074168;28;20056;-75
2022/10/06 02:11:22;;;;;;;;;;;10.50;99.90;;;;;;5074105;28;19909;-78
2022/10/06 02:13:47;;;;;;;;;;;10.50;99.90;;;;;;5074025;28;20429;-77
2022/10/06 02:16:13;;;;;;;;;;;10.50;99.90;;;;;;5072743;28;19908;-76
2022/10/06 02:18:38;;;;;;;;;;;10.50;99.90;;;;;;5074215;28;20292;-77
2022/10/06 02:21:05;;;;;;;;;;;10.40;99.90;;;;;;5074009;28;19920;-76
2022/10/06 02:23:31;;;;;;;;;;;10.40;99.90;;;;;;5074193;28;19908;-77
2022/10/06 02:25:57;;;;;;;;;;;10.40;99.90;;;;;;5074314;28;20269;-74
2022/10/06 02:28:23;;;;;;;;;;;10.40;99.90;;;;;;5073840;28;20379;-77
2022/10/06 02:30:48;;;;;;;;;;;10.40;99.90;;;;;;5074077;28;19915;-75
2022/10/06 02:33:14;;;;;;;;;;;10.30;99.90;;;;;;5073777;28;20295;-76
2022/10/06 02:35:41;;;;;;;;;;;10.40;99.90;;;;;;5073754;28;19958;-75
2022/10/06 02:38:07;;;;;;;;;;;10.40;99.90;;;;;;5074011;28;19915;-75
2022/10/06 02:40:32;;;;;;;;;;;10.50;99.90;;;;;;5073687;28;19908;-75
2022/10/06 02:42:58;;;;;;;;;;;10.50;99.90;;;;;;5073713;28;19997;-76
2022/10/06 02:45:23;;;;;;;;;;;10.50;99.90;;;;;;5072341;28;20409;-74
2022/10/06 02:47:49;;;;;;;;;;;10.50;99.90;;;;;;5073449;28;19916;-76
2022/10/06 02:50:15;;;;;;;;;;;10.50;99.90;;;;;;5073821;28;19917;-75
2022/10/06 02:52:41;;;;;;;;;;;10.50;99.90;;;;;;5073763;28;19919;-74
2022/10/06 02:55:07;;;;;;;;;;;10.50;99.90;;;;;;5073631;28;19992;-75
2022/10/06 02:57:33;;;;;;;;;;;10.50;99.90;;;;;;5073562;28;19944;-76
2022/10/06 02:59:59;;;;;;;;;;;10.60;99.90;;;;;;5073537;28;20412;-76
2022/10/06 03:02:24;;;;;;;;;;;10.50;99.90;;;;;;5073684;28;19913;-76
2022/10/06 03:04:50;;;;;;;;;;;10.50;99.90;;;;;;5072494;28;19908;-78
2022/10/06 03:07:16;;;;;;;;;;;10.50;99.90;;;;;;5073535;28;20003;-78
2022/10/06 03:09:42;;;;;;;;;;;10.50;99.90;;;;;;5073465;28;20053;-75
2022/10/06 03:12:07;;;;;;;;;;;10.50;99.90;;;;;;5073704;28;19919;-74
2022/10/06 03:14:33;;;;;;;;;;;10.40;99.90;;;;;;5073575;28;19960;-76
2022/10/06 03:16:59;;;;;;;;;;;10.50;99.90;;;;;;5073418;28;19909;-78
2022/10/06 03:19:24;;;;;;;;;;;10.40;99.90;;;;;;5073404;28;19912;-76
2022/10/06 03:21:50;;;;;;;;;;;10.40;99.90;;;;;;5073347;28;19923;-74
2022/10/06 03:24:15;;;;;;;;;;;10.30;99.90;;;;;;5073363;28;19915;-74
2022/10/06 03:26:42;;;;;;;;;;;10.40;99.90;;;;;;5073292;28;19993;-77
2022/10/06 03:29:08;;;;;;;;;;;10.30;99.90;;;;;;5073269;28;19908;-75
2022/10/06 03:31:34;;;;;;;;;;;10.30;99.90;;;;;;5073742;28;19958;-74
2022/10/06 03:33:59;;;;;;;;;;;10.30;99.90;;;;;;5073191;28;20441;-75
2022/10/06 03:36:26;;;;;;;;;;;10.30;99.90;;;;;;5073208;28;20461;-74
2022/10/06 03:38:52;;;;;;;;;;;10.30;99.90;;;;;;5071869;28;19912;-77
2022/10/06 03:41:22;;;;;;;;;;;10.20;99.90;;;;;;5074011;28;19962;-75
2022/10/06 03:43:48;;;;;;;;;;;10.20;99.90;;;;;;5077099;28;19914;-77
2022/10/06 03:46:18;;;;;;;;;;;10.00;99.90;;;;;;5076800;28;19915;-76
2022/10/06 03:48:44;;;;;;;;;;;10.00;99.90;;;;;;5076704;28;19920;-76
2022/10/06 03:51:11;;;;;;;;;;;10.00;99.90;;;;;;5076791;28;19915;-75
2022/10/06 03:53:37;;;;;;;;;;;10.10;99.90;;;;;;5076665;28;20003;-76
2022/10/06 03:56:06;;;;;;;;;;;10.00;99.90;;;;;;5076892;28;19931;-75
2022/10/06 03:58:33;;;;;;;;;;;9.90;99.90;;;;;;5076706;28;19908;-77
2022/10/06 04:00:59;;;;;;;;;;;9.90;99.90;;;;;;5076644;28;20037;-74
2022/10/06 04:03:25;;;;;;;;;;;9.90;99.90;;;;;;5076564;28;19912;-75
2022/10/06 04:05:55;;;;;;;;;;;10.00;99.90;;;;;;5076678;28;19908;-78
2022/10/06 04:08:21;;;;;;;;;;;9.90;99.90;;;;;;5076565;28;19908;-76
2022/10/06 04:10:47;;;;;;;;;;;9.80;99.90;;;;;;5076421;28;19909;-76
2022/10/06 04:13:14;;;;;;;;;;;9.80;99.90;;;;;;5076329;28;19917;-77
2022/10/06 04:15:39;;;;;;;;;;;9.60;99.90;;;;;;5076358;28;19908;-75
2022/10/06 04:18:05;;;;;;;;;;;9.40;99.90;;;;;;5076417;28;19916;-76
2022/10/06 04:20:31;;;;;;;;;;;9.30;99.90;;;;;;5076381;28;19953;-76
2022/10/06 04:22:57;;;;;;;;;;;9.00;99.90;;;;;;5076196;28;19912;-74
2022/10/06 04:25:22;;;;;;;;;;;8.90;99.90;;;;;;5076631;28;19915;-76
2022/10/06 04:27:48;;;;;;;;;;;8.80;99.90;;;;;;5076133;28;20310;-75
2022/10/06 04:30:13;;;;;;;;;;;8.80;99.90;;;;;;5076342;28;19908;-76
2022/10/06 04:32:39;;;;;;;;;;;9.10;99.90;;;;;;5076653;28;19920;-75
2022/10/06 04:35:05;;;;;;;;;;;9.20;99.90;;;;;;5075948;28;19919;-75
2022/10/06 04:37:30;;;;;;;;;;;9.30;99.90;;;;;;5075961;28;19958;-75
2022/10/06 04:39:56;;;;;;;;;;;9.30;99.90;;;;;;5075917;28;20279;-77
2022/10/06 04:42:21;;;;;;;;;;;9.20;99.90;;;;;;5076003;28;19962;-75
2022/10/06 04:44:47;;;;;;;;;;;9.30;99.90;;;;;;5075855;28;19996;-76
2022/10/06 04:47:12;;;;;;;;;;;9.30;99.90;;;;;;5075790;28;19955;-76
2022/10/06 04:49:38;;;;;;;;;;;9.30;99.90;;;;;;5074014;28;19968;-75
2022/10/06 04:52:04;;;;;;;;;;;9.40;99.90;;;;;;5075297;28;19923;-74
2022/10/06 04:54:29;;;;;;;;;;;9.40;99.90;;;;;;5075607;28;20302;-74
2022/10/06 04:56:55;;;;;;;;;;;9.30;99.90;;;;;;5075549;28;19913;-76
2022/10/06 05:00:21;;;;;;;;;;;9.30;99.90;;;;;;5075551;28;20384;-75
2022/10/06 05:02:07;;;;;;;;;;;9.30;99.90;;;;;;5075218;28;20288;-76
2022/10/06 05:04:33;;;;;;;;;;;9.30;99.90;;;;;;5075574;28;19909;-78
2022/10/06 05:06:58;;;;;;;;;;;9.40;99.90;;;;;;5075336;28;19958;-77
2022/10/06 05:09:24;;;;;;;;;;;9.30;99.90;;;;;;5075278;28;19912;-74
2022/10/06 05:11:49;;;;;;;;;;;9.30;99.90;;;;;;5075283;28;19913;-78
2022/10/06 05:14:15;;;;;;;;;;;9.30;99.90;;;;;;5075109;28;20326;-76
2022/10/06 05:16:41;;;;;;;;;;;9.20;99.90;;;;;;5075134;28;19984;-74
2022/10/06 05:19:07;;;;;;;;;;;9.10;99.90;;;;;;5075426;28;20012;-75
2022/10/06 05:21:33;;;;;;;;;;;9.10;99.90;;;;;;5075014;28;20377;-78
2022/10/06 05:23:59;;;;;;;;;;;8.90;99.90;;;;;;5075036;28;19915;-75
2022/10/06 05:26:26;;;;;;;;;;;9.00;99.90;;;;;;5074977;28;19916;-76
2022/10/06 05:28:51;;;;;;;;;;;9.00;99.90;;;;;;5074939;28;19916;-77
2022/10/06 05:31:27;;;;;;;;;;;8.90;99.90;;;;;;5075375;28;20284;-76
2022/10/06 05:33:53;;;;;;;;;;;9.00;99.90;;;;;;5074854;28;19920;-77
2022/10/06 05:36:20;;;;;;;;;;;9.00;99.90;;;;;;5074756;28;19913;-77
2022/10/06 05:38:46;;;;;;;;;;;9.00;99.90;;;;;;5074712;28;20046;-77
2022/10/06 05:41:13;;;;;;;;;;;8.90;99.90;;;;;;5074738;28;19962;-75
2022/10/06 05:43:39;;;;;;;;;;;8.90;99.90;;;;;;5074708;28;20287;-78
2022/10/06 05:46:06;;;;;;;;;;;8.90;99.90;;;;;;5074698;28;19984;-77
2022/10/06 05:48:32;;;;;;;;;;;8.80;99.90;;;;;;5074451;28;20411;-75
2022/10/06 05:51:02;;;;;;;;;;;8.80;99.90;;;;;;5074526;28;19908;-75
2022/10/06 05:53:28;;;;;;;;;;;8.80;99.90;;;;;;5074407;28;20371;-74
2022/10/06 05:56:06;;;;;;;;;;;8.60;99.90;;;;;;5074628;28;19908;-76
2022/10/06 05:58:32;;;;;;;;;;;8.60;99.90;;;;;;5074341;28;20283;-74
2022/10/06 06:01:06;;;;;;;;;;;8.60;99.90;;;;;;5074271;28;20000;-76
2022/10/06 06:03:32;;;;;;;;;;;8.60;99.90;;;;;;5073877;28;19908;-75
2022/10/06 06:05:57;;;;;;;;;;;8.60;99.90;;;;;;5074175;28;20414;-77
2022/10/06 06:08:23;;;;;;;;;;;8.50;99.90;;;;;;5074173;28;19912;-75
2022/10/06 06:10:48;;;;;;;;;;;8.50;99.90;;;;;;5074113;28;19908;-78
2022/10/06 06:13:21;;;;;;;;;;;8.50;99.90;;;;;;5074199;28;20287;-78
2022/10/06 06:16:03;;;;;;;;;;;8.50;99.90;;;;;;5074265;28;19909;-76
2022/10/06 06:18:32;;;;;;;;;;;8.50;99.90;;;;;;5072445;28;19915;-75
2022/10/06 06:20:59;;;;;;;;;;;8.40;99.90;;;;;;5073905;28;20372;-75
2022/10/06 06:23:29;;;;;;;;;;;8.40;99.90;;;;;;5074337;28;19912;-75
2022/10/06 06:25:59;;;;;;;;;;;8.50;99.90;;;;;;5074661;28;19952;-75
2022/10/06 06:28:27;;;;;;;;;;;8.50;99.90;;;;;;5074038;28;20411;-75
2022/10/06 06:31:06;;;;;;;;;;;8.50;99.90;;;;;;5073854;28;19909;-75
2022/10/06 06:33:34;;;;;;;;;;;8.50;99.90;;;;;;5074488;28;19919;-78
2022/10/06 06:36:02;;;;;;;;;;;8.40;99.90;;;;;;5073821;28;19908;-75
2022/10/06 06:38:28;;;;;;;;;;;8.50;99.90;;;;;;5073848;28;19916;-74
2022/10/06 06:40:54;;;;;;;;;;;8.80;99.90;;;;;;5073951;28;19914;-77
2022/10/06 06:43:19;;;;;;;;;;;8.90;99.90;;;;;;5072474;28;19917;-78
2022/10/06 06:45:45;;;;;;;;;;;9.00;99.90;;;;;;5073629;28;20330;-75
2022/10/06 06:48:14;;;;;;;;;;;9.10;99.90;;;;;;5073481;28;19928;-76
2022/10/06 06:50:40;;;;;;;;;;;9.10;99.90;;;;;;5073625;28;19915;-77
2022/10/06 06:53:06;;;;;;;;;;;9.20;99.90;;;;;;5072328;28;19913;-76
2022/10/06 06:55:32;;;;;;;;;;;9.30;99.90;;;;;;5073809;28;20390;-76
2022/10/06 06:57:57;;;;;;;;;;;9.60;99.90;;;;;;5073646;28;19931;-76
2022/10/06 07:00:23;;;;;;;;;;;10.00;99.90;;;;;;5073565;28;20407;-76
2022/10/06 07:02:54;;;;;;;;;;;10.40;99.90;;;;;;5073806;28;19953;-78
2022/10/06 07:05:21;;;;;;;;;;;10.70;99.90;;;;;;5072002;28;19909;-76
2022/10/06 07:07:47;;;;;;;;;;;10.90;99.90;;;;;;5073536;28;19908;-76
2022/10/06 07:10:12;;;;;;;;;;;11.20;99.90;;;;;;5073447;28;19908;-78
2022/10/06 07:12:38;;;;;;;;;;;11.50;99.90;;;;;;5073356;28;19919;-76
2022/10/06 07:26:01;;;;;;;;;;;13.60;99.90;;;;;;5077361;28;19931;-77
2022/10/06 07:28:29;;;;;;;;;;;14.40;99.90;;;;;;5077268;28;20380;-76
2022/10/06 07:30:55;;;;;;;;;;;14.80;99.90;;;;;;5077202;28;20068;-78
2022/10/06 07:33:21;;;;;;;;;;;15.30;99.90;;;;;;5077957;28;20335;-76
2022/10/06 07:35:46;;;;;;;;;;;15.70;99.90;;;;;;5077104;28;19939;-78
2022/10/06 07:38:12;;;;;;;;;;;16.20;99.90;;;;;;5077002;28;19909;-76
2022/10/06 07:40:37;;;;;;;;;;;16.50;99.90;;;;;;5077050;28;19908;-77
2022/10/06 07:43:03;;;;;;;;;;;16.90;99.90;;;;;;5077017;28;19916;-74
2022/10/06 07:45:37;;;;;;;;;;;17.50;99.90;;;;;;5077090;28;19908;-76
2022/10/06 07:48:04;;;;;;;;;;;18.00;99.90;;;;;;5075255;28;20417;-74
2022/10/06 07:50:30;;;;;;;;;;;18.50;99.90;;;;;;5077008;28;19931;-75
2022/10/06 07:52:55;;;;;;;;;;;18.90;99.90;;;;;;5076876;28;20372;-75
2022/10/06 07:55:21;;;;;;;;;;;19.30;99.90;;;;;;5076773;28;19923;-75
2022/10/06 07:57:49;;;;;;;;;;;19.70;99.90;;;;;;5076699;28;19908;-75
2022/10/06 08:00:15;;;;;;;;;;;20.00;99.90;;;;;;5076607;28;19927;-74
2022/10/06 08:02:41;;;;;;;;;;;20.30;99.10;;;;;;5076532;28;19908;-76
2022/10/06 08:05:07;;;;;;;;;;;20.50;98.50;;;;;;5076981;28;19908;-77
2022/10/06 08:07:33;;;;;;;;;;;20.70;99.60;;;;;;5076493;28;20433;-76
2022/10/06 08:09:59;;;;;;;;;;;21.20;98.70;;;;;;5076470;28;20380;-74
2022/10/06 08:12:36;;;;;;;;;;;21.60;97.60;;;;;;5076375;28;19912;-77
2022/10/06 08:15:05;;;;;;;;;;;22.00;96.90;;;;;;5074878;28;19955;-76
2022/10/06 08:17:31;;;;;;;;;;;22.30;96.50;;;;;;5076350;28;19931;-77
2022/10/06 08:19:56;;;;;;;;;;;22.70;95.30;;;;;;5076379;28;20467;-74
2022/10/06 08:22:26;;;;;;;;;;;23.00;93.30;;;;;;5076228;28;19916;-75
2022/10/06 08:24:53;;;;;;;;;;;23.10;92.30;;;;;;5076698;28;19908;-76
2022/10/06 08:27:19;;;;;;;;;;;23.60;92.50;;;;;;5075482;28;19934;-75
2022/10/06 08:29:45;;;;;;;;;;;24.10;89.60;;;;;;5076356;28;19912;-75
2022/10/06 08:32:11;;;;;;;;;;;24.70;90.80;;;;;;5076685;28;19916;-74
2022/10/06 08:34:36;;;;;;;;;;;25.50;89.90;;;;;;5076026;28;20389;-75
2022/10/06 08:37:02;;;;;;;;;;;24.60;83.80;;;;;;5076420;28;19915;-77
2022/10/06 08:39:29;;;;;;;;;;;23.60;85.60;;;;;;5075969;28;19915;-74
2022/10/06 08:41:57;;;;;;;;;;;24.20;84.90;;;;;;5075945;28;19913;-75
2022/10/06 08:44:34;;;;;;;;;;;23.90;84.10;;;;;;5075808;28;19916;-76
2022/10/06 08:47:00;;;;;;;;;;;24.90;82.60;;;;;;5075777;28;19909;-77
2022/10/06 08:49:33;;;;;;;;;;;25.80;80.40;;;;;;5075323;28;19920;-76
2022/10/06 08:52:19;;;;;;;;;;;26.80;80.50;;;;;;5075703;28;19946;-77
2022/10/06 08:54:57;;;;;;;;;;;28.50;78.80;;;;;;5075645;28;19912;-77
2022/10/06 08:57:28;;;;;;;;;;;30.00;72.40;;;;;;5075699;28;20015;-76
2022/10/06 08:59:56;;;;;;;;;;;30.90;69.90;;;;;;5075682;28;19908;-77
2022/10/06 09:02:27;;;;;;;;;;;31.50;66.30;;;;;;5075516;28;20288;-77
2022/10/06 09:04:55;;;;;;;;;;;32.20;63.30;;;;;;5075334;28;19954;-78
2022/10/06 09:07:23;;;;;;;;;;;31.90;61.10;;;;;;5075651;28;19922;-79
2022/10/06 09:10:09;;;;;;;;;;;31.50;58.10;;;;;;5075336;28;19908;-75
2022/10/06 09:12:39;;;;;;;;;;;30.60;58.90;;;;;;5075188;28;19913;-75
2022/10/06 09:15:19;;;;;;;;;;;31.10;60.00;;;;;;5075405;28;19959;-77
2022/10/06 09:18:00;;;;;;;;;;;31.60;57.90;;;;;;5075437;28;19908;-77
2022/10/06 09:20:42;;;;;;;;;;;31.90;57.90;;;;;;5075003;28;20295;-78
2022/10/06 09:23:13;;;;;;;;;;;32.90;56.70;;;;;;5075382;28;19916;-78
2022/10/06 09:25:38;;;;;;;;;;;32.90;55.10;;;;;;5075198;28;20401;-76
2022/10/06 09:28:14;;;;;;;;;;;32.40;55.00;;;;;;5075102;28;20002;-79
2022/10/06 09:30:41;;;;;;;;;;;33.50;55.00;;;;;;5075239;28;19948;-77
2022/10/06 09:33:14;;;;;;;;;;;34.50;51.80;;;;;;5075195;28;19959;-76
2022/10/06 09:36:01;;;;;;;;;;;32.50;52.00;;;;;;5075151;28;19909;-78
2022/10/06 09:39:04;;;;;;;;;;;34.10;52.70;;;;;;5072575;28;19915;-77
2022/10/06 09:41:33;;;;;;;;;;;35.20;50.70;;;;;;5074751;28;19958;-77
2022/10/06 09:44:02;;;;;;;;;;;36.70;50.20;;;;;;5074673;28;19915;-79
2022/10/06 09:46:40;;;;;;;;;;;37.40;47.60;;;;;;5074537;28;19909;-77
2022/10/06 09:49:06;;;;;;;;;;;37.70;46.60;;;;;;5072644;28;19925;-78
2022/10/06 09:51:34;;;;;;;;;;;36.90;46.50;;;;;;5074519;28;20284;-77
2022/10/06 09:54:09;;;;;;;;;;;37.20;46.80;;;;;;5074672;28;20406;-79
2022/10/06 09:56:39;;;;;;;;;;;36.60;47.00;;;;;;5074396;28;19961;-79
2022/10/06 09:59:14;;;;;;;;;;;34.90;48.40;;;;;;5074420;28;19919;-78
2022/10/06 10:01:40;;;;;;;;;;;34.70;48.40;;;;;;5074572;28;19908;-77
2022/10/06 10:04:11;;;;;;;;;;;35.80;47.60;;;;;;5074187;28;19913;-77
2022/10/06 10:06:37;;;;;;;;;;;36.10;47.00;;;;;;5074996;28;19954;-77
2022/10/06 10:09:19;;;;;;;;;;;35.50;45.80;;;;;;5074189;28;19908;-76
2022/10/06 10:14:37;;;;;;;;;;;37.80;44.20;;;;;;5074300;28;19916;-77
2022/10/06 10:17:14;;;;;;;;;;;39.60;42.60;;;;;;5074133;28;20364;-78
2022/10/06 10:19:46;;;;;;;;;;;39.30;40.50;;;;;;5074166;28;19909;-76
2022/10/06 10:22:22;;;;;;;;;;;39.70;41.60;;;;;;5074252;28;19908;-75
2022/10/06 10:25:04;;;;;;;;;;;38.90;40.20;;;;;;5074291;28;19943;-79
2022/10/06 10:27:44;;;;;;;;;;;37.70;41.60;;;;;;5074127;28;19915;-78
2022/10/06 10:30:10;;;;;;;;;;;37.20;40.30;;;;;;5074320;28;19919;-76
2022/10/06 10:32:36;;;;;;;;;;;37.20;41.20;;;;;;5074420;28;19915;-78
2022/10/06 10:35:05;;;;;;;;;;;38.80;41.40;;;;;;5073924;28;19908;-77
2022/10/06 10:37:43;;;;;;;;;;;40.70;40.60;;;;;;5073801;28;20291;-78
2022/10/06 10:40:17;;;;;;;;;;;41.10;39.10;;;;;;5074040;28;19914;-78
2022/10/06 10:42:44;;;;;;;;;;;42.30;39.90;;;;;;5073939;28;20314;-77
2022/10/06 10:45:36;;;;;;;;;;;42.80;37.90;;;;;;5073598;28;19999;-81
2022/10/06 10:48:09;;;;;;;;;;;43.40;38.10;;;;;;5070346;28;19916;-78
2022/10/06 10:50:42;;;;;;;;;;;43.50;36.70;;;;;;5073654;28;20504;-81
2022/10/06 10:53:13;;;;;;;;;;;44.00;35.90;;;;;;5073717;28;20372;-79
2022/10/06 10:55:44;;;;;;;;;;;42.80;35.60;;;;;;5073509;28;19909;-78
2022/10/06 10:58:21;;;;;;;;;;;41.20;36.90;;;;;;5073568;28;20368;-78
2022/10/06 11:00:51;;;;;;;;;;;40.60;36.70;;;;;;5073777;28;19915;-78
2022/10/06 11:03:20;;;;;;;;;;;41.50;36.70;;;;;;5073542;28;19917;-78
2022/10/06 11:05:54;;;;;;;;;;;42.60;35.00;;;;;;5073504;28;20308;-77
2022/10/06 11:08:29;;;;;;;;;;;41.80;36.40;;;;;;5073873;28;19908;-79
2022/10/06 11:10:57;;;;;;;;;;;42.90;35.80;;;;;;5073583;28;19932;-76
2022/10/06 11:13:29;;;;;;;;;;;40.10;34.40;;;;;;5073478;28;19991;-77
2022/10/06 11:15:59;;;;;;;;;;;37.00;36.50;;;;;;5073620;28;19908;-77
2022/10/06 11:18:36;;;;;;;;;;;37.20;37.80;;;;;;5073715;28;19935;-78
2022/10/06 11:21:25;;;;;;;;;;;37.90;35.40;;;;;;5073533;28;19916;-78
2022/10/06 11:23:59;;;;;;;;;;;40.30;36.70;;;;;;5044715;28;19920;-75
2022/10/06 11:26:34;;;;;;;;;;;42.60;33.40;;;;;;5073356;28;19920;-75
2022/10/06 11:29:03;;;;;;;;;;;42.30;34.10;;;;;;5073449;28;19909;-73
2022/10/06 11:31:29;;;;;;;;;;;38.20;34.10;;;;;;5073252;28;19912;-76
2022/10/06 11:33:59;;;;;;;;;;;35.00;35.80;;;;;;5074378;28;19958;-76
2022/10/06 11:36:25;;;;;;;;;;;35.00;38.50;;;;;;5073197;28;20399;-78
2022/10/06 11:39:00;;;;;;;;;;;40.40;35.30;;;;;;5073145;28;20309;-77
2022/10/06 11:41:27;;;;;;;;;;;43.90;34.60;;;;;;5073183;28;20387;-77
2022/10/06 11:43:59;;;;;;;;;;;45.80;32.40;;;;;;5073072;28;20338;-76
2022/10/06 11:46:30;;;;;;;;;;;43.50;31.70;;;;;;5073035;28;19931;-76
2022/10/06 11:49:14;;;;;;;;;;;45.90;32.60;;;;;;5073013;28;20298;-77
2022/10/06 11:51:40;;;;;;;;;;;47.40;31.70;;;;;;5073107;28;19909;-75
2022/10/06 11:54:25;;;;;;;;;;;47.00;31.00;;;;;;5072989;28;20395;-76
2022/10/06 11:56:51;;;;;;;;;;;47.50;30.50;;;;;;5072901;28;19956;-77
2022/10/06 11:59:24;;;;;;;;;;;48.60;30.20;;;;;;5073382;28;20288;-74
2022/10/06 12:01:50;;;;;;;;;;;50.10;30.70;;;;;;5073114;28;19909;-76
2022/10/06 12:04:18;;;;;;;;;;;50.00;29.90;;;;;;5076416;28;19916;-76
2022/10/06 12:06:44;;;;;;;;;;;49.90;29.90;;;;;;5076578;28;19915;-74
2022/10/06 12:09:27;;;;;;;;;;;50.90;29.60;;;;;;5076451;28;19912;-79
2022/10/06 12:11:56;;;;;;;;;;;50.80;29.00;;;;;;5076432;28;20368;-77
2022/10/06 12:14:35;;;;;;;;;;;51.90;28.90;;;;;;5076381;28;19910;-77
2022/10/06 12:17:18;;;;;;;;;;;51.00;28.40;;;;;;5076479;28;20000;-77
2022/10/06 12:20:01;;;;;;;;;;;47.70;27.80;;;;;;5076226;28;19909;-78
2022/10/06 12:22:49;;;;;;;;;;;45.50;29.60;;;;;;5074546;28;20291;-77
2022/10/06 12:25:29;;;;;;;;;;;47.90;29.40;;;;;;5076328;28;19995;-77
2022/10/06 12:27:55;;;;;;;;;;;49.70;28.20;;;;;;5076262;28;19908;-75
2022/10/06 12:30:21;;;;;;;;;;;47.30;28.30;;;;;;5076067;28;20262;-76
2022/10/06 12:32:49;;;;;;;;;;;46.40;28.30;;;;;;5076732;28;19975;-77
2022/10/06 12:35:29;;;;;;;;;;;47.40;28.20;;;;;;5076076;28;19909;-77
2022/10/06 12:37:57;;;;;;;;;;;47.60;28.20;;;;;;5076003;28;19909;-76
2022/10/06 12:40:45;;;;;;;;;;;46.80;28.10;;;;;;5075895;28;19944;-77
2022/10/06 12:43:11;;;;;;;;;;;47.00;28.10;;;;;;5076049;28;19913;-77
2022/10/06 12:45:56;;;;;;;;;;;45.40;28.30;;;;;;5075701;28;20399;-76
2022/10/06 12:48:25;;;;;;;;;;;45.30;28.20;;;;;;5074979;28;20339;-75
2022/10/06 12:51:01;;;;;;;;;;;43.60;28.60;;;;;;5075866;28;20340;-77
2022/10/06 12:53:31;;;;;;;;;;;41.20;29.60;;;;;;5075972;28;19958;-74
2022/10/06 12:56:00;;;;;;;;;;;43.30;29.20;;;;;;5075547;28;19958;-76
2022/10/06 12:58:27;;;;;;;;;;;44.70;29.50;;;;;;5075717;28;19913;-77
2022/10/06 13:00:58;;;;;;;;;;;46.10;29.00;;;;;;5075442;28;19916;-79
2022/10/06 13:03:24;;;;;;;;;;;46.50;28.50;;;;;;5075824;28;19920;-75
2022/10/06 13:05:51;;;;;;;;;;;47.30;28.50;;;;;;5075404;28;20007;-76
2022/10/06 13:08:20;;;;;;;;;;;48.20;29.00;;;;;;5075524;28;19916;-75
2022/10/06 13:10:46;;;;;;;;;;;48.10;28.90;;;;;;5075343;28;19920;-74
2022/10/06 13:13:19;;;;;;;;;;;47.40;29.40;;;;;;5075271;28;19909;-76
2022/10/06 13:15:45;;;;;;;;;;;46.90;29.00;;;;;;5073648;28;20345;-76
2022/10/06 13:18:12;;;;;;;;;;;47.70;29.10;;;;;;5075132;28;19984;-75
2022/10/06 13:20:38;;;;;;;;;;;48.30;29.00;;;;;;5075187;28;19908;-76
2022/10/06 13:23:23;;;;;;;;;;;47.20;28.30;;;;;;5075501;28;19912;-76
2022/10/06 13:25:52;;;;;;;;;;;44.10;29.10;;;;;;5075195;28;19908;-76
2022/10/06 13:28:38;;;;;;;;;;;45.70;29.40;;;;;;5074904;28;20272;-76
2022/10/06 13:31:22;;;;;;;;;;;46.00;29.20;;;;;;5064068;28;19909;-77
2022/10/06 13:33:49;;;;;;;;;;;45.50;28.90;;;;;;5075378;28;20003;-77
2022/10/06 13:36:15;;;;;;;;;;;46.30;29.20;;;;;;5074762;28;19908;-76
2022/10/06 13:38:41;;;;;;;;;;;46.50;28.80;;;;;;5074718;28;20382;-76
2022/10/06 13:41:13;;;;;;;;;;;46.60;28.60;;;;;;5074635;28;19958;-76
2022/10/06 13:43:40;;;;;;;;;;;46.90;28.70;;;;;;5074496;28;19960;-77
2022/10/06 13:46:08;;;;;;;;;;;47.60;28.60;;;;;;5074662;28;19912;-74
2022/10/06 13:48:33;;;;;;;;;;;47.40;28.00;;;;;;5074295;28;19920;-77
2022/10/06 13:51:02;;;;;;;;;;;47.60;28.40;;;;;;5074510;28;19908;-76
2022/10/06 13:53:29;;;;;;;;;;;47.40;28.00;;;;;;5074499;28;20273;-76
2022/10/06 13:55:56;;;;;;;;;;;46.10;28.10;;;;;;5074466;28;20085;-76
2022/10/06 13:58:25;;;;;;;;;;;46.00;28.50;;;;;;5074317;28;19908;-77
2022/10/06 14:00:55;;;;;;;;;;;47.00;28.10;;;;;;5074493;28;19958;-75
2022/10/06 14:03:25;;;;;;;;;;;46.90;27.50;;;;;;5074370;28;19919;-74
2022/10/06 14:06:02;;;;;;;;;;;47.40;27.90;;;;;;5074164;28;19909;-76
2022/10/06 14:08:27;;;;;;;;;;;44.60;27.60;;;;;;5074380;28;19909;-75
2022/10/06 14:10:58;;;;;;;;;;;41.70;28.90;;;;;;5074068;28;19908;-77
2022/10/06 14:13:24;;;;;;;;;;;41.60;29.30;;;;;;5074123;28;20441;-75
2022/10/06 14:15:51;;;;;;;;;;;42.90;29.60;;;;;;5074001;28;19908;-77
2022/10/06 14:18:25;;;;;;;;;;;44.50;29.10;;;;;;5072647;28;19908;-75
2022/10/06 14:20:53;;;;;;;;;;;45.60;28.60;;;;;;5074402;28;19990;-75
2022/10/06 14:23:37;;;;;;;;;;;43.50;28.60;;;;;;5074015;28;19971;-74
2022/10/06 14:26:03;;;;;;;;;;;44.00;29.30;;;;;;5073276;28;19916;-74
2022/10/06 14:28:29;;;;;;;;;;;43.30;29.80;;;;;;5074037;28;19908;-74
2022/10/06 14:30:56;;;;;;;;;;;42.80;29.60;;;;;;5073940;28;20376;-75
2022/10/06 14:33:25;;;;;;;;;;;43.70;29.20;;;;;;5074190;28;19962;-76
2022/10/06 14:35:51;;;;;;;;;;;43.60;29.80;;;;;;5073705;28;19909;-75
2022/10/06 14:38:17;;;;;;;;;;;43.60;29.30;;;;;;5072419;28;19909;-74
2022/10/06 14:40:42;;;;;;;;;;;42.20;29.10;;;;;;5073868;28;19939;-75
2022/10/06 14:43:08;;;;;;;;;;;40.50;29.90;;;;;;5073872;28;19956;-74